sensor_id;sensor_type;location;lat;lon;timestamp;P1;durP1;ratioP1;P2;durP2;ratioP2
15498;SDS011;7851;52.260;6.030;2023-02-15T00:03:17;15.7;;;12.7;;
15498;SDS011;7851;52.260;6.030;2023-02-15T00:03:17;19.3;;;13.7;;
15498;SDS011;7851;52.260;6.030;2023-02-15T00:03:20;17.1;;;13.5;;
15498;SDS011;7851;52.260;6.030;2023-02-15T00:04:23;14.7;;;11.2;;
15498;SDS011;7851;52.260;6.030;2023-02-15T00:05:20;12.5;;;10.9;;
15498;SDS011;7851;52.260;6.030;2023-02-15T00:06:20;15.5;;;10.6;;
15498;SDS011;7851;52.260;6.030;2023-02-15T00:07:20;14.6;;;10.8;;
15498;SDS011;7851;52.260;6.030;2023-02-15T00:08:20;14.8;;;10.5;;
15498;SDS011;7851;52.260;6.030;2023-02-15T00:09:20;12.5;;;10.2;;
15498;SDS011;7851;52.260;6.030;2023-02-15T00:10:20;13.8;;;11.4;;
15498;SDS011;7851;52.260;6.030;2023-02-15T00:11:20;13.5;;;11.5;;
15498;SDS011;7851;52.260;6.030;2023-02-15T00:12:20;15.7;;;11.9;;
15498;SDS011;7851;52.260;6.030;2023-02-15T00:13:20;14;;;11.1;;
15498;SDS011;7851;52.260;6.030;2023-02-15T00:14:21;15.8;;;12.6;;
15498;SDS011;7851;52.260;6.030;2023-02-15T00:15:20;16.9;;;11.8;;
15498;SDS011;7851;52.260;6.030;2023-02-15T00:16:20;15.5;;;11.5;;
15498;SDS011;7851;52.260;6.030;2023-02-15T00:17:20;16.5;;;11.4;;
15498;SDS011;7851;52.260;6.030;2023-02-15T00:18:20;15.4;;;11.1;;
15498;SDS011;7851;52.260;6.030;2023-02-15T00:19:20;18.3;;;11.9;;
15498;SDS011;7851;52.260;6.030;2023-02-15T00:20:20;13.1;;;10.5;;
15498;SDS011;7851;52.260;6.030;2023-02-15T00:21:20;14.5;;;10.5;;
15498;SDS011;7851;52.260;6.030;2023-02-15T00:22:20;19.1;;;11.9;;
15498;SDS011;7851;52.260;6.030;2023-02-15T00:23:20;19.5;;;12.3;;
15498;SDS011;7851;52.260;6.030;2023-02-15T00:24:20;29.1;;;16.6;;
15498;SDS011;7851;52.260;6.030;2023-02-15T00:25:20;29.2;;;16.8;;
15498;SDS011;7851;52.260;6.030;2023-02-15T00:26:20;23.8;;;16.1;;
15498;SDS011;7851;52.260;6.030;2023-02-15T00:27:20;28.6;;;17.7;;
15498;SDS011;7851;52.260;6.030;2023-02-15T00:28:20;31.3;;;18.1;;
15498;SDS011;7851;52.260;6.030;2023-02-15T00:29:20;34.6;;;17.4;;
15498;SDS011;7851;52.260;6.030;2023-02-15T00:30:20;43;;;18.1;;
15498;SDS011;7851;52.260;6.030;2023-02-15T00:31:20;36.2;;;16.6;;
15498;SDS011;7851;52.260;6.030;2023-02-15T00:32:20;27.3;;;15.4;;
15498;SDS011;7851;52.260;6.030;2023-02-15T00:33:20;25.4;;;14.8;;
15498;SDS011;7851;52.260;6.030;2023-02-15T00:34:21;21.2;;;15;;
15498;SDS011;7851;52.260;6.030;2023-02-15T00:35:20;31.4;;;15.9;;
15498;SDS011;7851;52.260;6.030;2023-02-15T00:36:20;22.7;;;15.3;;
15498;SDS011;7851;52.260;6.030;2023-02-15T00:37:23;24;;;14.7;;
15498;SDS011;7851;52.260;6.030;2023-02-15T00:38:25;21.3;;;14;;
15498;SDS011;7851;52.260;6.030;2023-02-15T00:39:25;17.6;;;12.9;;
15498;SDS011;7851;52.260;6.030;2023-02-15T00:40:25;18.5;;;12.6;;
15498;SDS011;7851;52.260;6.030;2023-02-15T00:41:25;21.1;;;14;;
15498;SDS011;7851;52.260;6.030;2023-02-15T00:42:25;21.2;;;13.9;;
15498;SDS011;7851;52.260;6.030;2023-02-15T00:43:25;23.6;;;15.5;;
15498;SDS011;7851;52.260;6.030;2023-02-15T00:44:25;24.6;;;15.8;;
15498;SDS011;7851;52.260;6.030;2023-02-15T00:45:25;27.9;;;17.1;;
15498;SDS011;7851;52.260;6.030;2023-02-15T00:46:25;21.1;;;15.7;;
15498;SDS011;7851;52.260;6.030;2023-02-15T00:47:24;22.7;;;15.7;;
15498;SDS011;7851;52.260;6.030;2023-02-15T00:48:24;19.3;;;14.9;;
15498;SDS011;7851;52.260;6.030;2023-02-15T00:49:25;20.7;;;14.3;;
15498;SDS011;7851;52.260;6.030;2023-02-15T00:50:25;22.7;;;15.4;;
15498;SDS011;7851;52.260;6.030;2023-02-15T00:51:25;17.5;;;14.1;;
15498;SDS011;7851;52.260;6.030;2023-02-15T00:52:27;17.1;;;13.4;;
15498;SDS011;7851;52.260;6.030;2023-02-15T00:53:27;20.5;;;15;;
15498;SDS011;7851;52.260;6.030;2023-02-15T00:54:27;18.7;;;14.2;;
15498;SDS011;7851;52.260;6.030;2023-02-15T00:55:27;16.2;;;13;;
15498;SDS011;7851;52.260;6.030;2023-02-15T00:56:27;18.8;;;13.3;;
15498;SDS011;7851;52.260;6.030;2023-02-15T00:57:27;21.8;;;13.7;;
15498;SDS011;7851;52.260;6.030;2023-02-15T00:58:27;21.2;;;15.9;;
15498;SDS011;7851;52.260;6.030;2023-02-15T00:59:27;21.7;;;14.3;;
15498;SDS011;7851;52.260;6.030;2023-02-15T01:00:27;69.7;;;18.5;;
15498;SDS011;7851;52.260;6.030;2023-02-15T01:01:27;15.3;;;11.6;;
15498;SDS011;7851;52.260;6.030;2023-02-15T01:02:27;14.2;;;11.5;;
15498;SDS011;7851;52.260;6.030;2023-02-15T01:03:27;14.7;;;11.3;;
15498;SDS011;7851;52.260;6.030;2023-02-15T01:04:27;20.4;;;12.7;;
15498;SDS011;7851;52.260;6.030;2023-02-15T01:05:27;27;;;13.6;;
15498;SDS011;7851;52.260;6.030;2023-02-15T01:06:27;62.8;;;15.3;;
15498;SDS011;7851;52.260;6.030;2023-02-15T01:07:27;46.1;;;19.7;;
15498;SDS011;7851;52.260;6.030;2023-02-15T01:08:27;33.7;;;15;;
15498;SDS011;7851;52.260;6.030;2023-02-15T01:09:27;41.7;;;16.8;;
15498;SDS011;7851;52.260;6.030;2023-02-15T01:10:27;106.4;;;21.2;;
15498;SDS011;7851;52.260;6.030;2023-02-15T01:11:27;102.9;;;19.7;;
15498;SDS011;7851;52.260;6.030;2023-02-15T01:12:27;158.9;;;24.4;;
15498;SDS011;7851;52.260;6.030;2023-02-15T01:13:27;91.1;;;19.7;;
15498;SDS011;7851;52.260;6.030;2023-02-15T01:14:27;58.3;;;17.8;;
15498;SDS011;7851;52.260;6.030;2023-02-15T01:15:27;108.1;;;23.4;;
15498;SDS011;7851;52.260;6.030;2023-02-15T01:16:27;113.8;;;23.1;;
15498;SDS011;7851;52.260;6.030;2023-02-15T01:17:27;105.9;;;22.9;;
15498;SDS011;7851;52.260;6.030;2023-02-15T01:18:27;144;;;26.9;;
15498;SDS011;7851;52.260;6.030;2023-02-15T01:19:27;108.4;;;26.5;;
15498;SDS011;7851;52.260;6.030;2023-02-15T01:20:27;105.5;;;27.1;;
15498;SDS011;7851;52.260;6.030;2023-02-15T01:21:27;104.1;;;23.8;;
15498;SDS011;7851;52.260;6.030;2023-02-15T01:22:27;72.4;;;22.8;;
15498;SDS011;7851;52.260;6.030;2023-02-15T01:23:27;42;;;18.8;;
15498;SDS011;7851;52.260;6.030;2023-02-15T01:24:27;62.8;;;22;;
15498;SDS011;7851;52.260;6.030;2023-02-15T01:25:27;52.7;;;20.9;;
15498;SDS011;7851;52.260;6.030;2023-02-15T01:26:27;70.2;;;18.9;;
15498;SDS011;7851;52.260;6.030;2023-02-15T01:27:27;63;;;20.2;;
15498;SDS011;7851;52.260;6.030;2023-02-15T01:28:27;27.4;;;16.9;;
15498;SDS011;7851;52.260;6.030;2023-02-15T01:29:27;29.5;;;17.4;;
15498;SDS011;7851;52.260;6.030;2023-02-15T01:30:27;43.3;;;22.7;;
15498;SDS011;7851;52.260;6.030;2023-02-15T01:31:27;32.7;;;19.1;;
15498;SDS011;7851;52.260;6.030;2023-02-15T01:32:27;29;;;20;;
15498;SDS011;7851;52.260;6.030;2023-02-15T01:33:27;27.7;;;18.3;;
15498;SDS011;7851;52.260;6.030;2023-02-15T01:34:28;23.8;;;17.7;;
15498;SDS011;7851;52.260;6.030;2023-02-15T01:35:27;36.4;;;18.9;;
15498;SDS011;7851;52.260;6.030;2023-02-15T01:36:27;30.2;;;18.5;;
15498;SDS011;7851;52.260;6.030;2023-02-15T01:37:27;30.6;;;18.1;;
15498;SDS011;7851;52.260;6.030;2023-02-15T01:38:27;24.1;;;17.2;;
15498;SDS011;7851;52.260;6.030;2023-02-15T01:39:27;24;;;17.2;;
15498;SDS011;7851;52.260;6.030;2023-02-15T01:40:27;25.4;;;18.4;;
15498;SDS011;7851;52.260;6.030;2023-02-15T01:41:27;24.9;;;16.8;;
15498;SDS011;7851;52.260;6.030;2023-02-15T01:42:27;22.7;;;17.3;;
15498;SDS011;7851;52.260;6.030;2023-02-15T01:43:38;29;;;19.8;;
15498;SDS011;7851;52.260;6.030;2023-02-15T01:45:28;26.9;;;17.9;;
15498;SDS011;7851;52.260;6.030;2023-02-15T01:46:28;29;;;17.9;;
15498;SDS011;7851;52.260;6.030;2023-02-15T01:47:29;33.5;;;19.2;;
15498;SDS011;7851;52.260;6.030;2023-02-15T01:48:27;39;;;21.1;;
15498;SDS011;7851;52.260;6.030;2023-02-15T01:49:27;28.5;;;19.4;;
15498;SDS011;7851;52.260;6.030;2023-02-15T01:50:28;25.2;;;19.1;;
15498;SDS011;7851;52.260;6.030;2023-02-15T01:51:27;27.2;;;18.6;;
15498;SDS011;7851;52.260;6.030;2023-02-15T01:52:27;28.3;;;19.1;;
15498;SDS011;7851;52.260;6.030;2023-02-15T01:53:28;24.3;;;18;;
15498;SDS011;7851;52.260;6.030;2023-02-15T01:54:28;24;;;18.8;;
15498;SDS011;7851;52.260;6.030;2023-02-15T01:55:29;24.6;;;17.9;;
15498;SDS011;7851;52.260;6.030;2023-02-15T01:56:27;26.9;;;18.1;;
15498;SDS011;7851;52.260;6.030;2023-02-15T01:57:27;25.3;;;17.5;;
15498;SDS011;7851;52.260;6.030;2023-02-15T01:58:27;23.8;;;17.3;;
15498;SDS011;7851;52.260;6.030;2023-02-15T01:59:27;25.9;;;16.9;;
15498;SDS011;7851;52.260;6.030;2023-02-15T02:00:27;32.7;;;18.1;;
15498;SDS011;7851;52.260;6.030;2023-02-15T02:01:27;24.5;;;16.9;;
15498;SDS011;7851;52.260;6.030;2023-02-15T02:02:27;20.8;;;17.3;;
15498;SDS011;7851;52.260;6.030;2023-02-15T02:03:29;45.8;;;21.2;;
15498;SDS011;7851;52.260;6.030;2023-02-15T02:04:29;54.4;;;21.1;;
15498;SDS011;7851;52.260;6.030;2023-02-15T02:05:27;52.7;;;23.9;;
15498;SDS011;7851;52.260;6.030;2023-02-15T02:06:27;34.5;;;20.4;;
15498;SDS011;7851;52.260;6.030;2023-02-15T02:07:27;51.9;;;21.2;;
15498;SDS011;7851;52.260;6.030;2023-02-15T02:08:27;43.2;;;20;;
15498;SDS011;7851;52.260;6.030;2023-02-15T02:09:27;32.4;;;19.9;;
15498;SDS011;7851;52.260;6.030;2023-02-15T02:10:27;39.2;;;20.1;;
15498;SDS011;7851;52.260;6.030;2023-02-15T02:11:27;30.3;;;18.3;;
15498;SDS011;7851;52.260;6.030;2023-02-15T02:12:27;25.8;;;18;;
15498;SDS011;7851;52.260;6.030;2023-02-15T02:13:27;34;;;17.3;;
15498;SDS011;7851;52.260;6.030;2023-02-15T02:14:27;31.2;;;17.9;;
15498;SDS011;7851;52.260;6.030;2023-02-15T02:15:28;27.5;;;16.7;;
15498;SDS011;7851;52.260;6.030;2023-02-15T02:16:28;37.9;;;18.2;;
15498;SDS011;7851;52.260;6.030;2023-02-15T02:17:29;31.6;;;17.4;;
15498;SDS011;7851;52.260;6.030;2023-02-15T02:18:31;42.3;;;17.8;;
15498;SDS011;7851;52.260;6.030;2023-02-15T02:19:41;31.6;;;18.2;;
15498;SDS011;7851;52.260;6.030;2023-02-15T02:20:30;27.3;;;16.6;;
15498;SDS011;7851;52.260;6.030;2023-02-15T02:21:36;35.3;;;17.5;;
15498;SDS011;7851;52.260;6.030;2023-02-15T02:23:29;31.6;;;17.5;;
15498;SDS011;7851;52.260;6.030;2023-02-15T02:24:34;27.2;;;19;;
15498;SDS011;7851;52.260;6.030;2023-02-15T02:25:33;44.3;;;20.6;;
15498;SDS011;7851;52.260;6.030;2023-02-15T02:26:33;46.5;;;18.8;;
15498;SDS011;7851;52.260;6.030;2023-02-15T02:27:32;32.7;;;19.6;;
15498;SDS011;7851;52.260;6.030;2023-02-15T02:28:32;29.9;;;18.4;;
15498;SDS011;7851;52.260;6.030;2023-02-15T02:30:47;55;;;22;;
15498;SDS011;7851;52.260;6.030;2023-02-15T02:31:35;65.8;;;24.7;;
15498;SDS011;7851;52.260;6.030;2023-02-15T02:33:33;38.6;;;18.3;;
15498;SDS011;7851;52.260;6.030;2023-02-15T02:34:28;25.8;;;16.1;;
15498;SDS011;7851;52.260;6.030;2023-02-15T02:35:28;34.6;;;19.5;;
15498;SDS011;7851;52.260;6.030;2023-02-15T02:36:29;29.4;;;19.2;;
15498;SDS011;7851;52.260;6.030;2023-02-15T02:37:28;34.7;;;18.7;;
15498;SDS011;7851;52.260;6.030;2023-02-15T02:38:28;36.8;;;20.2;;
15498;SDS011;7851;52.260;6.030;2023-02-15T02:39:28;31.1;;;18;;
15498;SDS011;7851;52.260;6.030;2023-02-15T02:40:29;23.7;;;17.1;;
15498;SDS011;7851;52.260;6.030;2023-02-15T02:41:29;32;;;18.3;;
15498;SDS011;7851;52.260;6.030;2023-02-15T02:42:28;37.5;;;19.9;;
15498;SDS011;7851;52.260;6.030;2023-02-15T02:43:28;32.7;;;20.5;;
15498;SDS011;7851;52.260;6.030;2023-02-15T02:44:29;26.4;;;19.1;;
15498;SDS011;7851;52.260;6.030;2023-02-15T02:45:28;34.7;;;19.4;;
15498;SDS011;7851;52.260;6.030;2023-02-15T02:46:28;34.8;;;21.5;;
15498;SDS011;7851;52.260;6.030;2023-02-15T02:47:29;36.2;;;19.3;;
15498;SDS011;7851;52.260;6.030;2023-02-15T02:48:27;37.1;;;20.8;;
15498;SDS011;7851;52.260;6.030;2023-02-15T02:49:29;42.3;;;21;;
15498;SDS011;7851;52.260;6.030;2023-02-15T02:50:27;40.8;;;19.9;;
15498;SDS011;7851;52.260;6.030;2023-02-15T02:51:27;41.5;;;21.4;;
15498;SDS011;7851;52.260;6.030;2023-02-15T02:52:36;52.3;;;24.1;;
15498;SDS011;7851;52.260;6.030;2023-02-15T02:53:27;42.6;;;20;;
15498;SDS011;7851;52.260;6.030;2023-02-15T02:54:27;51.1;;;22.5;;
15498;SDS011;7851;52.260;6.030;2023-02-15T02:55:28;47.8;;;21.1;;
15498;SDS011;7851;52.260;6.030;2023-02-15T02:56:27;49;;;21;;
15498;SDS011;7851;52.260;6.030;2023-02-15T02:57:27;49.6;;;20.7;;
15498;SDS011;7851;52.260;6.030;2023-02-15T02:58:29;56.9;;;22.5;;
15498;SDS011;7851;52.260;6.030;2023-02-15T02:59:27;53.3;;;21.6;;
15498;SDS011;7851;52.260;6.030;2023-02-15T03:00:29;50.9;;;20.7;;
15498;SDS011;7851;52.260;6.030;2023-02-15T03:01:28;42.2;;;20.3;;
15498;SDS011;7851;52.260;6.030;2023-02-15T03:02:28;36.3;;;20.4;;
15498;SDS011;7851;52.260;6.030;2023-02-15T03:03:28;35;;;21.5;;
15498;SDS011;7851;52.260;6.030;2023-02-15T03:04:28;39.2;;;21.3;;
15498;SDS011;7851;52.260;6.030;2023-02-15T03:05:27;54.2;;;19.9;;
15498;SDS011;7851;52.260;6.030;2023-02-15T03:06:30;39.3;;;19.2;;
15498;SDS011;7851;52.260;6.030;2023-02-15T03:07:27;40;;;18.7;;
15498;SDS011;7851;52.260;6.030;2023-02-15T03:08:28;62.8;;;20.4;;
15498;SDS011;7851;52.260;6.030;2023-02-15T03:09:28;61.5;;;22.4;;
15498;SDS011;7851;52.260;6.030;2023-02-15T03:10:27;59.4;;;24.2;;
15498;SDS011;7851;52.260;6.030;2023-02-15T03:11:27;51.7;;;19.6;;
15498;SDS011;7851;52.260;6.030;2023-02-15T03:12:28;72.9;;;21.8;;
15498;SDS011;7851;52.260;6.030;2023-02-15T03:13:27;59.6;;;20.3;;
15498;SDS011;7851;52.260;6.030;2023-02-15T03:14:27;64.1;;;21.8;;
15498;SDS011;7851;52.260;6.030;2023-02-15T03:15:28;45.4;;;22.2;;
15498;SDS011;7851;52.260;6.030;2023-02-15T03:16:27;48.5;;;23.4;;
15498;SDS011;7851;52.260;6.030;2023-02-15T03:17:27;55.9;;;23.6;;
15498;SDS011;7851;52.260;6.030;2023-02-15T03:18:28;39;;;23.7;;
15498;SDS011;7851;52.260;6.030;2023-02-15T03:19:27;49.9;;;22.1;;
15498;SDS011;7851;52.260;6.030;2023-02-15T03:20:28;44.4;;;20.8;;
15498;SDS011;7851;52.260;6.030;2023-02-15T03:21:29;43.5;;;20.5;;
15498;SDS011;7851;52.260;6.030;2023-02-15T03:22:28;40;;;21.1;;
15498;SDS011;7851;52.260;6.030;2023-02-15T03:23:27;33.7;;;18.5;;
15498;SDS011;7851;52.260;6.030;2023-02-15T03:24:28;41.6;;;20.5;;
15498;SDS011;7851;52.260;6.030;2023-02-15T03:25:27;43.9;;;19.5;;
15498;SDS011;7851;52.260;6.030;2023-02-15T03:26:27;41.9;;;19.2;;
15498;SDS011;7851;52.260;6.030;2023-02-15T03:27:27;45.5;;;18.7;;
15498;SDS011;7851;52.260;6.030;2023-02-15T03:28:28;29.6;;;18.9;;
15498;SDS011;7851;52.260;6.030;2023-02-15T03:29:27;25.3;;;19;;
15498;SDS011;7851;52.260;6.030;2023-02-15T03:30:27;33.1;;;20.4;;
15498;SDS011;7851;52.260;6.030;2023-02-15T03:31:28;38.7;;;20.1;;
15498;SDS011;7851;52.260;6.030;2023-02-15T03:32:28;30.9;;;18.4;;
15498;SDS011;7851;52.260;6.030;2023-02-15T03:33:27;24.4;;;18.1;;
15498;SDS011;7851;52.260;6.030;2023-02-15T03:34:27;32.2;;;19.9;;
15498;SDS011;7851;52.260;6.030;2023-02-15T03:35:30;32.3;;;19.3;;
15498;SDS011;7851;52.260;6.030;2023-02-15T03:36:28;28.8;;;19.7;;
15498;SDS011;7851;52.260;6.030;2023-02-15T03:37:28;31.4;;;20.1;;
15498;SDS011;7851;52.260;6.030;2023-02-15T03:38:28;31.9;;;20.1;;
15498;SDS011;7851;52.260;6.030;2023-02-15T03:39:29;27.3;;;20.3;;
15498;SDS011;7851;52.260;6.030;2023-02-15T03:40:28;52.6;;;17.6;;
15498;SDS011;7851;52.260;6.030;2023-02-15T03:41:27;34.6;;;19.3;;
15498;SDS011;7851;52.260;6.030;2023-02-15T03:42:28;37;;;16.8;;
15498;SDS011;7851;52.260;6.030;2023-02-15T03:43:29;56.3;;;17.9;;
15498;SDS011;7851;52.260;6.030;2023-02-15T03:44:27;51.8;;;17.9;;
15498;SDS011;7851;52.260;6.030;2023-02-15T03:45:28;39.5;;;18.5;;
15498;SDS011;7851;52.260;6.030;2023-02-15T03:46:28;61.9;;;18.5;;
15498;SDS011;7851;52.260;6.030;2023-02-15T03:47:28;62.3;;;18.8;;
15498;SDS011;7851;52.260;6.030;2023-02-15T03:48:27;38;;;17.9;;
15498;SDS011;7851;52.260;6.030;2023-02-15T03:49:28;43.9;;;20.1;;
15498;SDS011;7851;52.260;6.030;2023-02-15T03:50:27;49.9;;;20.2;;
15498;SDS011;7851;52.260;6.030;2023-02-15T03:51:27;33.4;;;21.1;;
15498;SDS011;7851;52.260;6.030;2023-02-15T03:52:27;41.2;;;22.2;;
15498;SDS011;7851;52.260;6.030;2023-02-15T03:53:27;45.7;;;18.2;;
15498;SDS011;7851;52.260;6.030;2023-02-15T03:54:28;35.6;;;19.8;;
15498;SDS011;7851;52.260;6.030;2023-02-15T03:55:27;62.5;;;21;;
15498;SDS011;7851;52.260;6.030;2023-02-15T03:56:27;57.3;;;21.8;;
15498;SDS011;7851;52.260;6.030;2023-02-15T03:57:28;37.4;;;22.3;;
15498;SDS011;7851;52.260;6.030;2023-02-15T03:58:27;52.9;;;20.1;;
15498;SDS011;7851;52.260;6.030;2023-02-15T03:59:27;40.7;;;19;;
15498;SDS011;7851;52.260;6.030;2023-02-15T04:00:27;69.4;;;20.8;;
15498;SDS011;7851;52.260;6.030;2023-02-15T04:01:27;41.3;;;19.2;;
15498;SDS011;7851;52.260;6.030;2023-02-15T04:02:27;33.3;;;20.2;;
15498;SDS011;7851;52.260;6.030;2023-02-15T04:03:28;31.1;;;20.1;;
15498;SDS011;7851;52.260;6.030;2023-02-15T04:04:30;35.2;;;19.6;;
15498;SDS011;7851;52.260;6.030;2023-02-15T04:05:27;25.2;;;18.5;;
15498;SDS011;7851;52.260;6.030;2023-02-15T04:06:27;25.4;;;19.1;;
15498;SDS011;7851;52.260;6.030;2023-02-15T04:07:27;55.3;;;23;;
15498;SDS011;7851;52.260;6.030;2023-02-15T04:08:27;53.6;;;21.7;;
15498;SDS011;7851;52.260;6.030;2023-02-15T04:09:27;41;;;22.6;;
15498;SDS011;7851;52.260;6.030;2023-02-15T04:10:27;25.8;;;19.2;;
15498;SDS011;7851;52.260;6.030;2023-02-15T04:11:27;38.7;;;21.7;;
15498;SDS011;7851;52.260;6.030;2023-02-15T04:12:27;31.3;;;22.3;;
15498;SDS011;7851;52.260;6.030;2023-02-15T04:13:30;29.5;;;21.2;;
15498;SDS011;7851;52.260;6.030;2023-02-15T04:14:27;25.1;;;19.7;;
15498;SDS011;7851;52.260;6.030;2023-02-15T04:15:27;27.8;;;19.5;;
15498;SDS011;7851;52.260;6.030;2023-02-15T04:16:28;22.8;;;18.5;;
15498;SDS011;7851;52.260;6.030;2023-02-15T04:17:27;25.2;;;18.2;;
15498;SDS011;7851;52.260;6.030;2023-02-15T04:18:27;22.3;;;18.6;;
15498;SDS011;7851;52.260;6.030;2023-02-15T04:19:27;25.2;;;17.9;;
15498;SDS011;7851;52.260;6.030;2023-02-15T04:20:27;29.1;;;18.4;;
15498;SDS011;7851;52.260;6.030;2023-02-15T04:21:28;24;;;18.1;;
15498;SDS011;7851;52.260;6.030;2023-02-15T04:22:27;30.1;;;20.8;;
15498;SDS011;7851;52.260;6.030;2023-02-15T04:23:27;17.6;;;15.5;;
15498;SDS011;7851;52.260;6.030;2023-02-15T04:24:27;20.9;;;17.2;;
15498;SDS011;7851;52.260;6.030;2023-02-15T04:25:27;19.3;;;16.9;;
15498;SDS011;7851;52.260;6.030;2023-02-15T04:26:27;22.5;;;18.4;;
15498;SDS011;7851;52.260;6.030;2023-02-15T04:27:27;24.5;;;18.8;;
15498;SDS011;7851;52.260;6.030;2023-02-15T04:28:27;23.6;;;18.4;;
15498;SDS011;7851;52.260;6.030;2023-02-15T04:29:27;27.5;;;18.3;;
15498;SDS011;7851;52.260;6.030;2023-02-15T04:30:27;31.9;;;18;;
15498;SDS011;7851;52.260;6.030;2023-02-15T04:31:27;21.8;;;17.6;;
15498;SDS011;7851;52.260;6.030;2023-02-15T04:32:27;20.3;;;17.7;;
15498;SDS011;7851;52.260;6.030;2023-02-15T04:33:27;27.1;;;19.4;;
15498;SDS011;7851;52.260;6.030;2023-02-15T04:34:27;23.6;;;19;;
15498;SDS011;7851;52.260;6.030;2023-02-15T04:35:27;21.8;;;18.6;;
15498;SDS011;7851;52.260;6.030;2023-02-15T04:36:27;26.9;;;19.3;;
15498;SDS011;7851;52.260;6.030;2023-02-15T04:37:27;21;;;15.7;;
15498;SDS011;7851;52.260;6.030;2023-02-15T04:38:27;20.9;;;17;;
15498;SDS011;7851;52.260;6.030;2023-02-15T04:39:27;23.4;;;19;;
15498;SDS011;7851;52.260;6.030;2023-02-15T04:40:27;19.5;;;16.3;;
15498;SDS011;7851;52.260;6.030;2023-02-15T04:41:27;22.5;;;17.8;;
15498;SDS011;7851;52.260;6.030;2023-02-15T04:42:27;24.4;;;19;;
15498;SDS011;7851;52.260;6.030;2023-02-15T04:43:27;28.2;;;18.7;;
15498;SDS011;7851;52.260;6.030;2023-02-15T04:44:27;30.6;;;21.4;;
15498;SDS011;7851;52.260;6.030;2023-02-15T04:45:27;28.2;;;20.3;;
15498;SDS011;7851;52.260;6.030;2023-02-15T04:46:27;28.2;;;19.6;;
15498;SDS011;7851;52.260;6.030;2023-02-15T04:47:27;27.2;;;19.3;;
15498;SDS011;7851;52.260;6.030;2023-02-15T04:48:27;24;;;16.9;;
15498;SDS011;7851;52.260;6.030;2023-02-15T04:49:27;25.6;;;18.6;;
15498;SDS011;7851;52.260;6.030;2023-02-15T04:50:27;26.7;;;19.3;;
15498;SDS011;7851;52.260;6.030;2023-02-15T04:51:27;23.8;;;17;;
15498;SDS011;7851;52.260;6.030;2023-02-15T04:52:27;19.4;;;17;;
15498;SDS011;7851;52.260;6.030;2023-02-15T04:53:27;25.3;;;16.5;;
15498;SDS011;7851;52.260;6.030;2023-02-15T04:54:27;21.6;;;16.5;;
15498;SDS011;7851;52.260;6.030;2023-02-15T04:55:27;28.7;;;18.4;;
15498;SDS011;7851;52.260;6.030;2023-02-15T04:56:27;24.6;;;18.2;;
15498;SDS011;7851;52.260;6.030;2023-02-15T04:57:27;27;;;19.6;;
15498;SDS011;7851;52.260;6.030;2023-02-15T04:58:27;26.2;;;19.1;;
15498;SDS011;7851;52.260;6.030;2023-02-15T04:59:27;28;;;20.3;;
15498;SDS011;7851;52.260;6.030;2023-02-15T05:00:27;28.6;;;20.3;;
15498;SDS011;7851;52.260;6.030;2023-02-15T05:01:27;26.8;;;20.2;;
15498;SDS011;7851;52.260;6.030;2023-02-15T05:02:27;28.4;;;21.2;;
15498;SDS011;7851;52.260;6.030;2023-02-15T05:03:27;30.1;;;22.5;;
15498;SDS011;7851;52.260;6.030;2023-02-15T05:04:27;29.3;;;21.8;;
15498;SDS011;7851;52.260;6.030;2023-02-15T05:05:27;29.1;;;21.6;;
15498;SDS011;7851;52.260;6.030;2023-02-15T05:06:27;29;;;20.8;;
15498;SDS011;7851;52.260;6.030;2023-02-15T05:07:27;25.7;;;21.4;;
15498;SDS011;7851;52.260;6.030;2023-02-15T05:08:27;26.8;;;20.9;;
15498;SDS011;7851;52.260;6.030;2023-02-15T05:09:27;31.4;;;20;;
15498;SDS011;7851;52.260;6.030;2023-02-15T05:10:27;25.1;;;19.3;;
15498;SDS011;7851;52.260;6.030;2023-02-15T05:11:27;24.5;;;20;;
15498;SDS011;7851;52.260;6.030;2023-02-15T05:12:27;26.6;;;21.2;;
15498;SDS011;7851;52.260;6.030;2023-02-15T05:13:27;30;;;23.8;;
15498;SDS011;7851;52.260;6.030;2023-02-15T05:14:27;29.9;;;21;;
15498;SDS011;7851;52.260;6.030;2023-02-15T05:15:27;29.2;;;22.3;;
15498;SDS011;7851;52.260;6.030;2023-02-15T05:16:27;24.1;;;20.5;;
15498;SDS011;7851;52.260;6.030;2023-02-15T05:17:27;28.5;;;19.4;;
15498;SDS011;7851;52.260;6.030;2023-02-15T05:18:27;31;;;20.5;;
15498;SDS011;7851;52.260;6.030;2023-02-15T05:19:27;25.7;;;20.6;;
15498;SDS011;7851;52.260;6.030;2023-02-15T05:20:27;30.6;;;21.8;;
15498;SDS011;7851;52.260;6.030;2023-02-15T05:21:27;26.6;;;21.8;;
15498;SDS011;7851;52.260;6.030;2023-02-15T05:22:27;28.8;;;21.9;;
15498;SDS011;7851;52.260;6.030;2023-02-15T05:23:27;30.3;;;20.1;;
15498;SDS011;7851;52.260;6.030;2023-02-15T05:24:27;18.7;;;15.3;;
15498;SDS011;7851;52.260;6.030;2023-02-15T05:25:27;23.5;;;17.6;;
15498;SDS011;7851;52.260;6.030;2023-02-15T05:26:27;22.9;;;18.6;;
15498;SDS011;7851;52.260;6.030;2023-02-15T05:27:27;23.9;;;18.4;;
15498;SDS011;7851;52.260;6.030;2023-02-15T05:28:27;22.3;;;17.5;;
15498;SDS011;7851;52.260;6.030;2023-02-15T05:29:27;23.6;;;18;;
15498;SDS011;7851;52.260;6.030;2023-02-15T05:30:27;24.9;;;18.1;;
15498;SDS011;7851;52.260;6.030;2023-02-15T05:31:27;21.6;;;17;;
15498;SDS011;7851;52.260;6.030;2023-02-15T05:32:27;22.7;;;18.3;;
15498;SDS011;7851;52.260;6.030;2023-02-15T05:33:27;28.3;;;21.7;;
15498;SDS011;7851;52.260;6.030;2023-02-15T05:34:27;31.6;;;24.2;;
15498;SDS011;7851;52.260;6.030;2023-02-15T05:35:27;31.2;;;21.2;;
15498;SDS011;7851;52.260;6.030;2023-02-15T05:36:27;22.4;;;18.3;;
15498;SDS011;7851;52.260;6.030;2023-02-15T05:37:27;21.4;;;17.4;;
15498;SDS011;7851;52.260;6.030;2023-02-15T05:38:27;25.8;;;19.1;;
15498;SDS011;7851;52.260;6.030;2023-02-15T05:39:27;25.2;;;19.9;;
15498;SDS011;7851;52.260;6.030;2023-02-15T05:40:27;22.5;;;18.3;;
15498;SDS011;7851;52.260;6.030;2023-02-15T05:41:27;19;;;16.3;;
15498;SDS011;7851;52.260;6.030;2023-02-15T05:42:27;19;;;16.3;;
15498;SDS011;7851;52.260;6.030;2023-02-15T05:43:27;20.9;;;17;;
15498;SDS011;7851;52.260;6.030;2023-02-15T05:44:27;23;;;17.7;;
15498;SDS011;7851;52.260;6.030;2023-02-15T05:45:27;20.9;;;18.6;;
15498;SDS011;7851;52.260;6.030;2023-02-15T05:46:27;21.4;;;17.3;;
15498;SDS011;7851;52.260;6.030;2023-02-15T05:47:27;21.8;;;17.2;;
15498;SDS011;7851;52.260;6.030;2023-02-15T05:48:27;25.7;;;18.1;;
15498;SDS011;7851;52.260;6.030;2023-02-15T05:49:27;25.3;;;18.3;;
15498;SDS011;7851;52.260;6.030;2023-02-15T05:50:27;22.7;;;17.6;;
15498;SDS011;7851;52.260;6.030;2023-02-15T05:51:27;25.7;;;18;;
15498;SDS011;7851;52.260;6.030;2023-02-15T05:52:27;24.5;;;19.6;;
15498;SDS011;7851;52.260;6.030;2023-02-15T05:53:27;22;;;17.6;;
15498;SDS011;7851;52.260;6.030;2023-02-15T05:54:27;20.2;;;17.9;;
15498;SDS011;7851;52.260;6.030;2023-02-15T05:55:27;21.1;;;18.6;;
15498;SDS011;7851;52.260;6.030;2023-02-15T05:56:27;24.2;;;16.4;;
15498;SDS011;7851;52.260;6.030;2023-02-15T05:57:27;21.9;;;18.1;;
15498;SDS011;7851;52.260;6.030;2023-02-15T05:58:27;23.1;;;16.9;;
15498;SDS011;7851;52.260;6.030;2023-02-15T05:59:27;22.9;;;16.7;;
15498;SDS011;7851;52.260;6.030;2023-02-15T06:00:27;19.7;;;16.1;;
15498;SDS011;7851;52.260;6.030;2023-02-15T06:01:27;23.6;;;16.9;;
15498;SDS011;7851;52.260;6.030;2023-02-15T06:02:27;18.4;;;16.1;;
15498;SDS011;7851;52.260;6.030;2023-02-15T06:03:27;24.6;;;17.6;;
15498;SDS011;7851;52.260;6.030;2023-02-15T06:04:27;24.2;;;18;;
15498;SDS011;7851;52.260;6.030;2023-02-15T06:05:27;21.2;;;17;;
15498;SDS011;7851;52.260;6.030;2023-02-15T06:06:27;22.5;;;17.1;;
15498;SDS011;7851;52.260;6.030;2023-02-15T06:07:27;23.4;;;17.7;;
15498;SDS011;7851;52.260;6.030;2023-02-15T06:08:27;24.3;;;16.5;;
15498;SDS011;7851;52.260;6.030;2023-02-15T06:09:27;21;;;16.4;;
15498;SDS011;7851;52.260;6.030;2023-02-15T06:10:27;20.2;;;16.5;;
15498;SDS011;7851;52.260;6.030;2023-02-15T06:11:27;21.1;;;17.5;;
15498;SDS011;7851;52.260;6.030;2023-02-15T06:12:27;19.2;;;15.9;;
15498;SDS011;7851;52.260;6.030;2023-02-15T06:13:27;21.6;;;16.2;;
15498;SDS011;7851;52.260;6.030;2023-02-15T06:14:27;21.1;;;17.5;;